Time;durP1;ratioP1;P1;durP2;ratioP2;P2;SDS_P1;SDS_P2;PMS_P1;PMS_P2;Temp;Humidity;BMP_temperature;BMP_pressure;BME280_temperature;BME280_humidity;BME280_pressure;Samples;Min_cycle;Max_cycle;Signal;HPM_P1;HPM_P2
2022/12/07 00:01:13;;;;;;;1.17;0.82;;;21.60;42.20;;;;;;4995517;28;20514;-62
2022/12/07 00:03:41;;;;;;;1.48;0.90;;;21.60;42.20;;;;;;4994013;28;21543;-62
2022/12/07 00:06:09;;;;;;;1.45;0.85;;;21.60;42.30;;;;;;4995161;28;20412;-61
2022/12/07 00:08:35;;;;;;;1.05;0.93;;;21.50;42.20;;;;;;4996405;28;20041;-62
2022/12/07 00:11:06;;;;;;;1.25;0.70;;;21.50;42.20;;;;;;4997436;28;20829;-62
2022/12/07 00:13:33;;;;;;;1.17;0.75;;;21.50;42.10;;;;;;4994274;28;20054;-63
2022/12/07 00:16:19;;;;;;;0.75;0.68;;;21.50;42.20;;;;;;4994974;28;20706;-62
2022/12/07 00:18:45;;;;;;;1.80;0.75;;;21.40;42.00;;;;;;4996008;28;20124;-62
2022/12/07 00:21:16;;;;;;;1.15;0.80;;;21.40;42.20;;;;;;4995312;28;20049;-62
2022/12/07 00:23:44;;;;;;;1.48;0.50;;;21.40;42.10;;;;;;4992050;28;20042;-61
2022/12/07 00:26:12;;;;;;;0.80;0.75;;;21.40;42.10;;;;;;5024702;28;20057;-62
2022/12/07 00:28:38;;;;;;;1.38;0.93;;;21.30;42.00;;;;;;4991120;28;20041;-62
2022/12/07 00:31:07;;;;;;;0.80;0.60;;;21.30;42.00;;;;;;4979331;28;20132;-61
2022/12/07 00:33:33;;;;;;;0.88;0.80;;;21.30;42.00;;;;;;4993045;28;20061;-62
2022/12/07 00:36:00;;;;;;;1.13;0.68;;;21.30;42.00;;;;;;4995227;28;20120;-61
2022/12/07 00:38:31;;;;;;;0.93;0.63;;;21.30;42.00;;;;;;4994680;28;20044;-61
2022/12/07 00:41:04;;;;;;;1.08;0.63;;;21.20;42.00;;;;;;4994172;28;20097;-61
2022/12/07 00:43:30;;;;;;;1.65;0.60;;;21.20;42.00;;;;;;4994132;28;20057;-62
2022/12/07 00:45:56;;;;;;;0.95;0.68;;;21.20;42.00;;;;;;4994302;28;20759;-58
2022/12/07 00:48:22;;;;;;;1.40;0.70;;;21.20;42.00;;;;;;4992782;28;20165;-61
2022/12/07 00:50:49;;;;;;;0.77;0.68;;;21.10;41.90;;;;;;4991956;28;20050;-62
2022/12/07 00:53:15;;;;;;;1.00;0.65;;;21.10;41.90;;;;;;4993327;28;20552;-62
2022/12/07 00:55:41;;;;;;;0.82;0.60;;;21.10;41.90;;;;;;4994768;28;20521;-61
2022/12/07 00:58:06;;;;;;;0.77;0.50;;;21.10;41.90;;;;;;4990461;28;20038;-61
2022/12/07 01:00:33;;;;;;;0.52;0.50;;;21.10;41.90;;;;;;4994749;28;20526;-62
2022/12/07 01:02:59;;;;;;;0.68;0.68;;;21.10;42.00;;;;;;4994075;28;20096;-61
2022/12/07 01:05:25;;;;;;;1.08;0.70;;;21.00;41.90;;;;;;4985123;28;20474;-62
2022/12/07 01:07:50;;;;;;;0.85;0.60;;;21.00;41.90;;;;;;4994611;28;20104;-62
2022/12/07 01:10:16;;;;;;;1.70;0.60;;;21.00;42.00;;;;;;4994933;28;20034;-60
2022/12/07 01:12:42;;;;;;;0.98;0.60;;;21.00;42.00;;;;;;4993635;28;20054;-61
2022/12/07 01:15:08;;;;;;;0.95;0.65;;;21.00;42.00;;;;;;4990986;28;20038;-62
2022/12/07 01:17:34;;;;;;;1.20;0.60;;;20.90;41.90;;;;;;4995579;28;20805;-62
2022/12/07 01:20:02;;;;;;;0.85;0.70;;;20.90;41.90;;;;;;4994960;28;20865;-62
2022/12/07 01:22:27;;;;;;;2.22;0.63;;;20.90;41.90;;;;;;4994929;28;20034;-62
2022/12/07 01:24:53;;;;;;;1.00;0.60;;;20.90;41.90;;;;;;4999389;28;20536;-62
2022/12/07 01:27:19;;;;;;;0.60;0.40;;;20.90;42.00;;;;;;4994981;28;20074;-62
2022/12/07 01:29:45;;;;;;;0.57;0.43;;;20.80;41.90;;;;;;4994191;28;20038;-62
2022/12/07 01:32:11;;;;;;;0.70;0.50;;;20.80;42.00;;;;;;4993912;28;20034;-62
2022/12/07 01:34:37;;;;;;;0.60;0.50;;;20.80;42.00;;;;;;4990661;28;20050;-62
2022/12/07 01:37:02;;;;;;;0.60;0.50;;;20.80;42.00;;;;;;4993988;28;20753;-62
2022/12/07 01:39:29;;;;;;;0.70;0.60;;;20.80;42.10;;;;;;4998885;28;20040;-61
2022/12/07 01:41:55;;;;;;;1.55;0.50;;;20.70;42.00;;;;;;4993237;28;20053;-62
2022/12/07 01:44:26;;;;;;;0.73;0.47;;;20.70;42.70;;;;;;4992782;28;20050;-61
2022/12/07 01:47:03;;;;;;;1.20;0.75;;;20.70;41.90;;;;;;5000558;28;20164;-62
2022/12/07 01:49:32;;;;;;;0.85;0.65;;;20.70;42.00;;;;;;4998590;28;20490;-62
2022/12/07 01:52:08;;;;;;;0.70;0.47;;;20.70;42.00;;;;;;4991883;28;20483;-62
2022/12/07 01:54:34;;;;;;;1.75;0.60;;;20.70;42.00;;;;;;4994956;28;20575;-62
2022/12/07 01:57:01;;;;;;;1.55;0.70;;;20.60;42.00;;;;;;4994946;28;20405;-62
2022/12/07 01:59:27;;;;;;;0.55;0.47;;;20.60;42.00;;;;;;4991830;28;20038;-62
2022/12/07 02:01:55;;;;;;;0.80;0.50;;;20.60;42.00;;;;;;4991518;28;20030;-62
2022/12/07 02:04:22;;;;;;;2.33;0.65;;;20.60;42.00;;;;;;4991900;28;20554;-62
2022/12/07 02:06:49;;;;;;;1.83;0.60;;;20.60;42.00;;;;;;4994241;28;20058;-62
2022/12/07 02:09:15;;;;;;;1.38;0.40;;;20.60;42.00;;;;;;4991229;28;20124;-62
2022/12/07 02:11:41;;;;;;;0.80;0.47;;;20.60;42.00;;;;;;4991573;28;20614;-62
2022/12/07 02:14:07;;;;;;;0.98;0.50;;;20.50;42.00;;;;;;4994434;28;20045;-62
2022/12/07 02:16:44;;;;;;;0.85;0.60;;;20.50;41.90;;;;;;4993394;28;20417;-61
2022/12/07 02:19:28;;;;;;;0.73;0.40;;;20.50;41.90;;;;;;4992045;28;20045;-62
2022/12/07 02:22:27;;;;;;;1.02;0.60;;;20.50;41.90;;;;;;4990579;28;20092;-62
2022/12/07 02:25:39;;;;;;;2.17;0.60;;;20.50;41.90;;;;;;4992130;28;20584;-62
2022/12/07 02:28:18;;;;;;;1.30;0.52;;;20.50;41.90;;;;;;4992135;28;20053;-62
2022/12/07 02:30:47;;;;;;;0.82;0.50;;;20.40;42.00;;;;;;4993298;28;20417;-62
2022/12/07 02:33:19;;;;;;;0.60;0.38;;;20.40;42.00;;;;;;4991291;28;20073;-62
2022/12/07 02:35:57;;;;;;;0.80;0.40;;;20.40;41.90;;;;;;4994500;28;20045;-60
2022/12/07 02:38:40;;;;;;;1.48;0.68;;;20.40;41.80;;;;;;4991867;28;20042;-61
2022/12/07 02:41:07;;;;;;;1.38;0.68;;;20.40;41.80;;;;;;4992533;28;20041;-62
2022/12/07 02:43:42;;;;;;;1.20;0.50;;;20.40;41.90;;;;;;4992237;28;20112;-62
2022/12/07 02:46:16;;;;;;;0.70;0.40;;;20.40;41.70;;;;;;4992459;28;20042;-61
2022/12/07 02:48:43;;;;;;;3.05;0.70;;;20.30;41.70;;;;;;4991405;28;20052;-62
2022/12/07 02:51:09;;;;;;;1.02;0.47;;;20.30;41.70;;;;;;4993370;28;20164;-62
2022/12/07 02:53:41;;;;;;;0.82;0.40;;;20.30;41.70;;;;;;4990352;28;20050;-60
2022/12/07 02:56:38;;;;;;;1.40;0.45;;;20.30;41.60;;;;;;4992910;28;20534;-61
2022/12/07 03:00:14;;;;;;;0.85;0.38;;;20.30;41.50;;;;;;4990547;28;20123;-61
2022/12/07 03:02:48;;;;;;;1.30;0.60;;;20.30;41.50;;;;;;4947624;28;20046;-62
2022/12/07 03:05:34;;;;;;;1.17;0.50;;;20.30;41.70;;;;;;4962373;28;20132;-58
2022/12/07 03:08:10;;;;;;;1.02;0.50;;;20.30;41.60;;;;;;4991103;28;20042;-61
2022/12/07 03:10:50;;;;;;;1.30;0.70;;;20.30;41.60;;;;;;4974305;28;20046;-61
2022/12/07 03:13:22;;;;;;;0.82;0.50;;;20.20;41.50;;;;;;4991476;28;20420;-61
2022/12/07 03:16:03;;;;;;;1.35;0.60;;;20.20;41.50;;;;;;4992243;28;21985;-61
2022/12/07 03:18:32;;;;;;;0.98;0.50;;;20.20;41.50;;;;;;4991474;28;20039;-62
2022/12/07 03:21:04;;;;;;;1.25;0.77;;;20.20;41.50;;;;;;5022817;28;20512;-61
2022/12/07 03:23:33;;;;;;;0.82;0.50;;;20.20;41.50;;;;;;5010652;28;20060;-62
2022/12/07 03:26:01;;;;;;;0.68;0.38;;;20.20;41.40;;;;;;4997102;28;20046;-62
2022/12/07 03:28:35;;;;;;;0.75;0.32;;;20.10;41.40;;;;;;4995377;28;20041;-61
2022/12/07 03:31:18;;;;;;;0.90;0.40;;;20.20;41.40;;;;;;4994505;28;20038;-61
2022/12/07 03:34:13;;;;;;;1.48;0.47;;;20.10;41.30;;;;;;4993933;28;20157;-62
2022/12/07 03:36:42;;;;;;;0.82;0.43;;;20.10;41.40;;;;;;4996707;28;20041;-61
2022/12/07 03:39:31;;;;;;;1.15;0.50;;;20.10;41.50;;;;;;4995482;28;20074;-62
2022/12/07 03:41:59;;;;;;;1.58;0.40;;;20.10;41.40;;;;;;4994248;28;20450;-61
2022/12/07 03:44:26;;;;;;;1.38;0.50;;;20.10;41.50;;;;;;4996309;28;20077;-61
2022/12/07 03:47:10;;;;;;;1.50;0.47;;;20.10;41.50;;;;;;4995106;28;20100;-61
2022/12/07 03:49:57;;;;;;;0.75;0.40;;;20.10;41.50;;;;;;4995680;28;20138;-62
2022/12/07 03:52:45;;;;;;;0.63;0.28;;;20.10;41.40;;;;;;4997083;28;20096;-61
2022/12/07 03:55:25;;;;;;;0.82;0.45;;;20.10;41.40;;;;;;4995323;28;20046;-62
2022/12/07 03:57:55;;;;;;;0.68;0.38;;;20.00;42.10;;;;;;4995625;28;20037;-61
2022/12/07 04:00:24;;;;;;;1.65;0.40;;;20.00;41.50;;;;;;4994738;28;20057;-62
2022/12/07 04:02:53;;;;;;;1.00;0.50;;;20.00;41.50;;;;;;4995557;28;20041;-61
2022/12/07 04:05:19;;;;;;;1.95;0.50;;;20.00;41.40;;;;;;4994645;28;20322;-62
2022/12/07 04:07:45;;;;;;;0.82;0.35;;;20.00;41.40;;;;;;4998458;28;20708;-62
2022/12/07 04:10:10;;;;;;;1.23;0.68;;;20.00;41.40;;;;;;4993727;28;20380;-61
2022/12/07 04:12:36;;;;;;;0.70;0.30;;;20.00;41.40;;;;;;4995565;28;20045;-61
2022/12/07 04:15:03;;;;;;;0.73;0.20;;;20.00;41.30;;;;;;4994568;28;20077;-61
2022/12/07 04:17:29;;;;;;;1.00;0.40;;;20.00;41.30;;;;;;4994404;28;20042;-61
2022/12/07 04:19:54;;;;;;;1.55;0.55;;;20.00;41.40;;;;;;4994562;28;20092;-61
2022/12/07 04:22:20;;;;;;;0.90;0.32;;;19.90;41.30;;;;;;4994591;28;20044;-61
2022/12/07 04:24:46;;;;;;;0.90;0.40;;;20.00;41.30;;;;;;4992757;28;20868;-61
2022/12/07 04:27:11;;;;;;;1.25;0.65;;;19.90;41.30;;;;;;4997010;28;20651;-61
2022/12/07 04:29:37;;;;;;;1.30;0.50;;;19.90;41.30;;;;;;4995557;28;20060;-61
2022/12/07 04:32:03;;;;;;;0.30;0.17;;;20.00;41.40;;;;;;4993897;28;20030;-61
2022/12/07 04:34:29;;;;;;;1.50;0.65;;;19.90;41.30;;;;;;4992539;28;20092;-61
2022/12/07 04:36:54;;;;;;;1.10;0.50;;;19.90;41.30;;;;;;4995677;28;20793;-62
2022/12/07 04:39:27;;;;;;;1.17;0.40;;;19.90;41.30;;;;;;4994027;28;20036;-62
2022/12/07 04:41:53;;;;;;;0.68;0.30;;;19.90;41.30;;;;;;4994178;28;20042;-61
2022/12/07 04:44:20;;;;;;;1.15;0.50;;;19.90;41.20;;;;;;4993756;28;20053;-61
2022/12/07 04:46:46;;;;;;;1.95;0.57;;;19.90;41.20;;;;;;4996609;28;20140;-60
2022/12/07 04:49:14;;;;;;;0.88;0.47;;;19.90;41.20;;;;;;4992684;28;20113;-61
2022/12/07 04:51:40;;;;;;;1.00;0.60;;;19.90;41.20;;;;;;4995694;28;20049;-61
2022/12/07 04:54:05;;;;;;;1.10;0.45;;;19.90;41.20;;;;;;4994928;28;20137;-60
2022/12/07 04:56:32;;;;;;;1.15;0.40;;;19.90;41.20;;;;;;4995650;28;20137;-61
2022/12/07 04:58:57;;;;;;;1.02;0.40;;;19.80;41.90;;;;;;4992926;28;20494;-61
2022/12/07 05:01:23;;;;;;;1.20;0.50;;;19.80;41.20;;;;;;4994437;28;20052;-62
2022/12/07 05:03:50;;;;;;;0.40;0.30;;;19.80;41.20;;;;;;4992078;28;20069;-61
2022/12/07 05:06:16;;;;;;;2.65;0.60;;;19.80;41.10;;;;;;4996176;28;20042;-61
2022/12/07 05:08:42;;;;;;;0.85;0.30;;;19.80;41.20;;;;;;4993509;28;20597;-62
2022/12/07 05:11:09;;;;;;;1.10;0.40;;;19.80;41.10;;;;;;5010407;28;20046;-62
2022/12/07 05:13:35;;;;;;;0.88;0.40;;;19.80;41.10;;;;;;4994655;28;20042;-62
2022/12/07 05:16:01;;;;;;;1.27;0.47;;;19.80;41.20;;;;;;4980160;28;20029;-61
2022/12/07 05:18:27;;;;;;;1.00;0.47;;;19.80;41.20;;;;;;4992292;28;20501;-61
2022/12/07 05:20:53;;;;;;;1.05;0.38;;;19.70;41.10;;;;;;4993992;28;20387;-61
2022/12/07 05:23:19;;;;;;;1.25;0.57;;;19.70;41.00;;;;;;4993861;28;20112;-61
2022/12/07 05:25:46;;;;;;;1.52;0.50;;;19.70;41.10;;;;;;4994186;28;20041;-61
2022/12/07 05:28:11;;;;;;;0.98;0.40;;;19.70;41.00;;;;;;4994317;28;20489;-60
2022/12/07 05:30:37;;;;;;;1.42;0.45;;;19.70;41.10;;;;;;4993671;28;20041;-61
2022/12/07 05:33:03;;;;;;;1.83;0.60;;;19.70;41.00;;;;;;4992258;28;20125;-62
2022/12/07 05:35:29;;;;;;;0.70;0.40;;;19.70;41.10;;;;;;4991030;28;20491;-62
2022/12/07 05:37:55;;;;;;;1.25;0.63;;;19.70;41.00;;;;;;4992562;28;20121;-62
2022/12/07 05:40:21;;;;;;;1.35;0.52;;;19.70;41.10;;;;;;4994505;28;20038;-62
2022/12/07 05:42:47;;;;;;;1.17;0.43;;;19.70;41.00;;;;;;4995170;28;20506;-61
2022/12/07 05:45:12;;;;;;;1.27;0.30;;;19.70;41.00;;;;;;4993007;28;20046;-61
2022/12/07 05:47:38;;;;;;;1.70;0.30;;;19.60;41.00;;;;;;4993871;28;20080;-61
2022/12/07 05:50:05;;;;;;;1.45;0.55;;;19.70;41.00;;;;;;4994170;28;20040;-61
2022/12/07 05:52:31;;;;;;;0.68;0.40;;;19.60;41.00;;;;;;4994793;28;20478;-62
2022/12/07 05:54:56;;;;;;;1.90;0.43;;;19.60;41.00;;;;;;4990753;28;20068;-62
2022/12/07 05:57:22;;;;;;;1.10;0.47;;;19.60;41.00;;;;;;4995363;28;20044;-62
2022/12/07 05:59:48;;;;;;;0.73;0.40;;;19.60;41.00;;;;;;4992631;28;20598;-62
2022/12/07 06:02:15;;;;;;;0.98;0.45;;;19.60;41.00;;;;;;4994256;28;20030;-62
2022/12/07 06:04:46;;;;;;;1.00;0.65;;;19.60;40.90;;;;;;4992093;28;20042;-61
2022/12/07 06:07:14;;;;;;;0.73;0.40;;;19.60;40.90;;;;;;4992408;28;20080;-62
2022/12/07 06:09:40;;;;;;;1.65;0.63;;;19.60;40.90;;;;;;4992103;28;20076;-62
2022/12/07 06:14:51;;;;;;;1.70;0.45;;;19.50;40.90;;;;;;4991479;28;20425;-62
2022/12/07 06:17:17;;;;;;;1.15;0.45;;;19.60;41.00;;;;;;4993235;28;20045;-62
2022/12/07 06:19:43;;;;;;;2.55;0.57;;;19.60;41.00;;;;;;4992334;28;20131;-61
2022/12/07 06:22:11;;;;;;;1.52;0.80;;;19.50;41.00;;;;;;4991116;28;20076;-62
2022/12/07 06:24:37;;;;;;;1.48;0.70;;;19.50;41.10;;;;;;4991355;28;20121;-62
2022/12/07 06:27:04;;;;;;;1.27;0.52;;;19.50;41.00;;;;;;4992297;28;20417;-61
2022/12/07 06:29:29;;;;;;;7.50;1.20;;;19.50;41.00;;;;;;4992135;28;20136;-61
2022/12/07 06:31:55;;;;;;;9.45;0.80;;;19.50;41.10;;;;;;4994583;28;20869;-61
2022/12/07 06:34:22;;;;;;;9.60;1.10;;;19.60;41.20;;;;;;4997147;28;21646;-61
2022/12/07 06:36:51;;;;;;;6.80;0.82;;;20.00;41.00;;;;;;4987217;28;20046;-61
2022/12/07 06:39:18;;;;;;;4.20;0.98;;;20.60;40.30;;;;;;4990113;28;20099;-61
2022/12/07 06:41:44;;;;;;;5.05;1.27;;;21.20;39.40;;;;;;4991413;28;20046;-61
2022/12/07 06:44:10;;;;;;;2.85;0.85;;;21.80;38.50;;;;;;4988625;28;20065;-62
2022/12/07 06:46:35;;;;;;;4.95;0.55;;;22.20;37.90;;;;;;4990138;28;20065;-61
2022/12/07 06:49:01;;;;;;;4.70;0.50;;;22.40;37.60;;;;;;4991416;28;20046;-61
2022/12/07 06:51:27;;;;;;;3.97;0.60;;;22.40;37.60;;;;;;4991346;28;20041;-61
2022/12/07 06:53:53;;;;;;;2.22;0.55;;;22.30;37.70;;;;;;4989559;28;20556;-62
2022/12/07 06:56:19;;;;;;;2.08;0.60;;;22.30;37.80;;;;;;4989708;28;20045;-61
2022/12/07 06:58:44;;;;;;;2.22;0.50;;;22.30;37.80;;;;;;4988780;28;20041;-61
2022/12/07 07:01:15;;;;;;;4.22;0.75;;;22.30;37.80;;;;;;4992672;28;20038;-61
2022/12/07 07:03:41;;;;;;;2.88;0.60;;;22.30;37.80;;;;;;4992064;28;20442;-63
2022/12/07 07:06:07;;;;;;;1.83;0.77;;;22.20;38.00;;;;;;4992441;28;20493;-61
2022/12/07 07:08:34;;;;;;;2.65;0.90;;;22.20;38.10;;;;;;4990035;28;20152;-61
2022/12/07 07:11:00;;;;;;;2.53;0.60;;;22.10;38.10;;;;;;4991348;28;20046;-61
2022/12/07 07:13:27;;;;;;;4.30;0.65;;;22.10;38.20;;;;;;4991994;28;20385;-61
2022/12/07 07:15:53;;;;;;;4.75;0.50;;;22.00;38.20;;;;;;4992066;28;20069;-62
2022/12/07 07:18:18;;;;;;;2.00;0.75;;;22.10;38.30;;;;;;4991386;28;20068;-61
2022/12/07 07:20:44;;;;;;;3.38;0.50;;;22.10;38.20;;;;;;4993207;28;20145;-61
2022/12/07 07:23:10;;;;;;;3.13;0.60;;;22.10;38.20;;;;;;4992111;28;20393;-62
2022/12/07 07:25:35;;;;;;;6.25;0.88;;;22.10;38.20;;;;;;4988784;28;20146;-64
2022/12/07 07:28:02;;;;;;;3.25;0.90;;;22.10;38.20;;;;;;4988937;28;20046;-61
2022/12/07 07:30:28;;;;;;;2.70;0.50;;;22.10;38.20;;;;;;4989644;28;20038;-61
2022/12/07 07:32:58;;;;;;;3.13;1.00;;;22.10;38.30;;;;;;4990997;28;20092;-60
2022/12/07 07:35:25;;;;;;;7.72;1.02;;;22.10;38.50;;;;;;4992165;28;20042;-61
2022/12/07 07:37:50;;;;;;;7.50;1.20;;;22.10;38.60;;;;;;4993159;28;20049;-61
2022/12/07 07:40:16;;;;;;;3.60;0.70;;;22.10;38.70;;;;;;4989679;28;20034;-62
2022/12/07 07:42:42;;;;;;;5.72;0.90;;;22.10;38.80;;;;;;4988767;28;20097;-61
2022/12/07 07:45:08;;;;;;;4.18;0.50;;;22.10;38.70;;;;;;4999542;28;20041;-61
2022/12/07 07:47:35;;;;;;;2.53;0.63;;;22.10;38.70;;;;;;4988964;28;20128;-61
2022/12/07 07:50:00;;;;;;;3.50;0.82;;;22.10;38.60;;;;;;4991461;28;20161;-61
2022/12/07 07:52:26;;;;;;;1.80;1.00;;;22.10;38.50;;;;;;4990409;28;20870;-61
2022/12/07 07:54:52;;;;;;;6.00;0.80;;;22.10;38.40;;;;;;4991357;28;20038;-61
2022/12/07 07:57:17;;;;;;;3.00;0.90;;;22.20;38.50;;;;;;4993926;28;20600;-61
2022/12/07 07:59:43;;;;;;;5.28;0.70;;;22.20;38.50;;;;;;4990369;28;20148;-61
2022/12/07 08:02:17;;;;;;;3.05;0.47;;;22.30;38.40;;;;;;4989261;28;20084;-61
2022/12/07 08:04:42;;;;;;;6.15;0.88;;;22.40;38.10;;;;;;4980128;28;20093;-62
2022/12/07 08:07:08;;;;;;;2.05;0.65;;;22.60;37.90;;;;;;4990940;28;20030;-61
2022/12/07 08:09:34;;;;;;;3.63;0.80;;;22.70;37.80;;;;;;4991421;28;20484;-61
2022/12/07 08:12:00;;;;;;;3.38;0.88;;;22.80;37.60;;;;;;4993744;28;20813;-62
2022/12/07 08:14:27;;;;;;;2.88;0.90;;;22.90;37.50;;;;;;4992912;28;20096;-62
2022/12/07 08:16:53;;;;;;;4.18;0.82;;;22.90;37.30;;;;;;4992152;28;20061;-62
2022/12/07 08:19:18;;;;;;;7.25;1.00;;;23.00;37.30;;;;;;4992489;28;20042;-61
2022/12/07 08:21:44;;;;;;;3.60;0.73;;;23.00;37.10;;;;;;4995238;28;20622;-61
2022/12/07 08:24:10;;;;;;;2.05;0.68;;;23.10;36.90;;;;;;4994068;28;20030;-62
2022/12/07 08:26:35;;;;;;;3.28;0.65;;;23.10;36.80;;;;;;4991781;28;20046;-62
2022/12/07 08:29:01;;;;;;;1.60;0.90;;;23.10;37.50;;;;;;4992799;28;20551;-61
2022/12/07 08:31:27;;;;;;;1.92;0.70;;;23.10;36.70;;;;;;4993651;28;20161;-61
2022/12/07 08:33:53;;;;;;;2.92;0.70;;;23.10;36.60;;;;;;4991711;28;20042;-61
2022/12/07 08:36:19;;;;;;;3.78;0.80;;;23.10;36.50;;;;;;4993450;28;20037;-61
2022/12/07 08:38:45;;;;;;;2.05;0.70;;;23.10;36.60;;;;;;4992875;28;20045;-61
2022/12/07 08:41:11;;;;;;;3.40;1.23;;;23.10;36.60;;;;;;4991026;28;20049;-61
2022/12/07 08:43:37;;;;;;;2.55;0.80;;;23.10;36.60;;;;;;4994251;28;20498;-62
2022/12/07 08:46:19;;;;;;;3.58;0.75;;;23.10;36.70;;;;;;4997331;28;20309;-61
2022/12/07 08:48:52;;;;;;;1.92;0.52;;;23.20;36.80;;;;;;4994989;28;20980;-61
2022/12/07 08:51:17;;;;;;;4.97;0.65;;;23.20;36.80;;;;;;4995425;28;20077;-62
2022/12/07 08:53:44;;;;;;;3.88;0.70;;;23.20;36.80;;;;;;4992410;28;20524;-61
2022/12/07 08:56:10;;;;;;;1.15;0.43;;;23.20;36.90;;;;;;4994585;28;20070;-62
2022/12/07 08:58:38;;;;;;;1.20;0.57;;;23.20;36.90;;;;;;4988653;28;20121;-62
2022/12/07 09:01:04;;;;;;;2.15;0.60;;;23.20;37.00;;;;;;4990704;28;20368;-62
2022/12/07 09:03:30;;;;;;;3.78;0.75;;;23.20;37.00;;;;;;4991017;28;20387;-62
2022/12/07 09:05:56;;;;;;;3.28;0.70;;;23.20;37.00;;;;;;4992114;28;20039;-62
2022/12/07 09:08:25;;;;;;;4.00;0.75;;;23.20;37.00;;;;;;4990411;28;20046;-62
2022/12/07 09:10:50;;;;;;;1.63;0.80;;;23.30;37.10;;;;;;4990626;28;20034;-62
2022/12/07 09:13:16;;;;;;;2.10;0.60;;;23.30;37.10;;;;;;4989815;28;20041;-62
2022/12/07 09:15:42;;;;;;;4.03;0.70;;;23.30;37.00;;;;;;4991409;28;20494;-61
2022/12/07 09:18:07;;;;;;;3.03;0.70;;;23.30;37.00;;;;;;4992852;28;20573;-61
2022/12/07 09:20:33;;;;;;;3.50;0.60;;;23.30;36.90;;;;;;4993092;28;20088;-61
2022/12/07 09:22:59;;;;;;;1.98;0.55;;;23.30;36.80;;;;;;4992734;28;20042;-64
2022/12/07 09:25:25;;;;;;;2.33;0.82;;;23.30;36.80;;;;;;4992413;28;20049;-62
2022/12/07 09:28:00;;;;;;;1.45;0.52;;;23.30;36.80;;;;;;4990781;28;20042;-62
2022/12/07 09:30:26;;;;;;;2.40;0.65;;;23.30;36.70;;;;;;4990226;28;20034;-61
2022/12/07 09:32:56;;;;;;;3.03;0.73;;;23.30;36.80;;;;;;4991585;28;20088;-62
2022/12/07 09:35:23;;;;;;;3.70;0.90;;;23.30;36.80;;;;;;4990115;28;20050;-62
2022/12/07 09:37:49;;;;;;;2.58;1.00;;;23.30;36.90;;;;;;4991602;28;20335;-62
2022/12/07 09:40:16;;;;;;;4.13;1.05;;;23.30;37.00;;;;;;4990196;28;20520;-62
2022/12/07 09:42:46;;;;;;;3.80;0.85;;;23.30;37.20;;;;;;4991824;28;20145;-62
2022/12/07 09:45:20;;;;;;;4.18;0.88;;;23.30;37.40;;;;;;4992412;28;20116;-62
2022/12/07 09:47:46;;;;;;;5.47;1.17;;;23.40;37.40;;;;;;4993051;28;20125;-61
2022/12/07 09:50:15;;;;;;;3.90;0.82;;;23.40;37.50;;;;;;4991927;28;20444;-61
2022/12/07 09:52:43;;;;;;;3.55;0.75;;;23.40;37.60;;;;;;4992685;28;20133;-61
2022/12/07 09:55:14;;;;;;;4.82;1.05;;;23.50;37.80;;;;;;4990441;28;20613;-61
2022/12/07 09:57:41;;;;;;;3.63;0.70;;;23.40;37.80;;;;;;4990711;28;20038;-61
2022/12/07 10:00:13;;;;;;;3.70;0.90;;;23.50;37.90;;;;;;4992684;28;20498;-61
2022/12/07 10:02:41;;;;;;;6.03;0.98;;;23.50;38.00;;;;;;4992059;28;20117;-61
2022/12/07 10:05:15;;;;;;;5.03;1.00;;;23.50;38.10;;;;;;4972930;28;20119;-61
2022/12/07 10:07:41;;;;;;;3.35;0.90;;;23.40;38.10;;;;;;4989630;28;20046;-61
2022/12/07 10:10:17;;;;;;;2.72;0.98;;;23.40;38.10;;;;;;4991486;28;20048;-61
2022/12/07 10:12:59;;;;;;;3.75;0.98;;;23.50;38.30;;;;;;4988285;28;20108;-62
2022/12/07 10:15:43;;;;;;;1.88;0.80;;;23.50;38.20;;;;;;4990125;28;20041;-61
2022/12/07 10:18:27;;;;;;;2.00;0.75;;;23.50;38.30;;;;;;4987587;28;20390;-61
2022/12/07 10:21:11;;;;;;;2.30;0.70;;;23.50;38.30;;;;;;4989590;28;20054;-62
2022/12/07 10:23:38;;;;;;;2.45;0.60;;;23.50;38.20;;;;;;4990509;28;20030;-61
2022/12/07 10:26:49;;;;;;;1.55;0.88;;;23.50;38.20;;;;;;4992321;28;20148;-61
2022/12/07 10:29:17;;;;;;;3.30;0.93;;;23.50;38.10;;;;;;4977800;28;20053;-61
2022/12/07 10:31:44;;;;;;;2.25;0.85;;;23.50;38.10;;;;;;4988429;28;20089;-60
2022/12/07 10:34:42;;;;;;;3.35;0.70;;;23.50;38.00;;;;;;4987565;28;20145;-61
2022/12/07 10:37:17;;;;;;;3.47;0.80;;;23.50;37.90;;;;;;4970655;28;20061;-61
2022/12/07 10:39:54;;;;;;;2.80;0.70;;;23.50;37.90;;;;;;4991252;28;20048;-61
2022/12/07 10:42:30;;;;;;;2.47;0.70;;;23.50;37.80;;;;;;4990404;28;20029;-61
2022/12/07 10:45:16;;;;;;;6.57;0.63;;;23.50;37.80;;;;;;4989155;28;20125;-61
2022/12/07 10:47:44;;;;;;;3.00;0.95;;;23.50;37.80;;;;;;4991718;28;20053;-61
2022/12/07 10:50:25;;;;;;;1.70;1.05;;;23.50;37.80;;;;;;4990398;28;20045;-61
2022/12/07 10:53:23;;;;;;;;;;;23.50;37.80;;;;;;4989854;28;21669;-62
2022/12/07 10:55:52;;;;;;;2.15;0.60;;;23.50;37.70;;;;;;4992164;28;19925;-61
2022/12/07 10:58:29;;;;;;;2.22;0.70;;;23.50;37.80;;;;;;4990029;28;20587;-61
2022/12/07 11:01:08;;;;;;;2.80;0.80;;;23.50;37.70;;;;;;4988959;28;20077;-61
2022/12/07 11:03:45;;;;;;;1.40;0.68;;;23.50;37.50;;;;;;4989684;28;20562;-61
2022/12/07 11:06:23;;;;;;;2.05;0.73;;;23.50;37.50;;;;;;4991660;28;20041;-61
2022/12/07 11:09:04;;;;;;;2.90;0.57;;;23.50;37.50;;;;;;4990379;28;20045;-61
2022/12/07 11:11:32;;;;;;;;;;;23.50;37.40;;;;;;4992320;28;20046;-60
2022/12/07 11:14:05;;;;;;;1.92;0.70;;;23.50;37.10;;;;;;4991285;28;19929;-62
2022/12/07 11:16:44;;;;;;;1.17;0.50;;;23.50;37.20;;;;;;4993583;28;20049;-62
2022/12/07 11:19:28;;;;;;;0.68;0.50;;;23.50;37.00;;;;;;4989677;28;20038;-60
2022/12/07 11:22:00;;;;;;;2.65;0.70;;;23.50;36.60;;;;;;4991936;28;20041;-61
2022/12/07 11:24:34;;;;;;;1.33;0.55;;;23.50;36.80;;;;;;4989343;28;20468;-62
2022/12/07 11:27:06;;;;;;;2.13;0.70;;;23.50;36.70;;;;;;4992851;28;20038;-61
2022/12/07 11:29:51;;;;;;;2.30;0.95;;;23.50;36.80;;;;;;4989130;28;20078;-61
2022/12/07 11:32:40;;;;;;;2.75;0.80;;;23.50;37.00;;;;;;4989396;28;20053;-61
2022/12/07 11:35:45;;;;;;;1.90;0.85;;;23.50;37.00;;;;;;4991482;28;20049;-61
2022/12/07 11:38:21;;;;;;;3.63;1.00;;;23.50;37.00;;;;;;4990196;28;20699;-62
2022/12/07 11:40:49;;;;;;;1.45;0.80;;;23.50;37.10;;;;;;4991783;28;20603;-63
2022/12/07 11:43:18;;;;;;;1.95;0.90;;;23.50;37.20;;;;;;4991809;28;20060;-61
2022/12/07 11:45:50;;;;;;;1.83;0.73;;;23.50;37.20;;;;;;4993854;28;20042;-61
2022/12/07 11:48:37;;;;;;;2.30;0.88;;;23.50;37.30;;;;;;4993909;28;20119;-61
2022/12/07 11:51:04;;;;;;;2.00;0.70;;;23.50;37.30;;;;;;4993857;28;20508;-60
2022/12/07 11:53:44;;;;;;;4.43;1.00;;;23.50;37.30;;;;;;4991953;28;20168;-62
2022/12/07 11:56:15;;;;;;;2.72;0.68;;;23.50;37.20;;;;;;4995158;28;20447;-62
2022/12/07 11:58:50;;;;;;;2.25;0.77;;;23.50;37.30;;;;;;4994382;28;20726;-61
2022/12/07 12:01:31;;;;;;;3.58;0.70;;;23.60;37.30;;;;;;4993814;28;20080;-61
2022/12/07 12:03:57;;;;;;;2.55;0.55;;;23.60;37.20;;;;;;4993610;28;20107;-61
2022/12/07 12:06:22;;;;;;;4.22;0.90;;;23.60;37.20;;;;;;4995389;28;20751;-61
2022/12/07 12:08:49;;;;;;;2.10;0.93;;;23.60;37.20;;;;;;4992483;28;20396;-61
2022/12/07 12:11:37;;;;;;;2.63;0.70;;;23.60;37.20;;;;;;4993285;28;20050;-61
2022/12/07 12:14:16;;;;;;;2.33;0.60;;;23.60;37.10;;;;;;4990705;28;20575;-61
2022/12/07 12:17:00;;;;;;;2.88;0.70;;;23.60;37.20;;;;;;4993192;28;20034;-61
2022/12/07 12:19:50;;;;;;;3.28;0.73;;;23.60;37.10;;;;;;4991545;28;20041;-61
2022/12/07 12:22:20;;;;;;;1.70;0.87;;;23.60;37.10;;;;;;4992760;28;20073;-61
2022/12/07 12:24:51;;;;;;;1.80;0.60;;;23.60;37.10;;;;;;4994682;28;20497;-62
2022/12/07 12:27:30;;;;;;;1.33;0.65;;;23.60;37.00;;;;;;4993840;28;20046;-60
2022/12/07 12:30:00;;;;;;;2.55;0.80;;;23.60;36.80;;;;;;5006302;28;20042;-60
2022/12/07 12:32:43;;;;;;;5.20;0.57;;;23.60;36.90;;;;;;4993828;28;20453;-61
2022/12/07 12:35:32;;;;;;;4.53;0.98;;;23.60;36.90;;;;;;4992901;28;20305;-62
2022/12/07 12:38:24;;;;;;;1.45;0.80;;;23.60;37.80;;;;;;4994629;28;20050;-60
2022/12/07 12:40:50;;;;;;;1.70;0.88;;;23.60;37.20;;;;;;4994585;28;20061;-60
2022/12/07 12:44:01;;;;;;;3.28;0.77;;;23.60;37.20;;;;;;4993292;28;20494;-61
2022/12/07 12:46:29;;;;;;;3.35;0.90;;;23.60;37.10;;;;;;4993027;28;20046;-61
2022/12/07 12:49:20;;;;;;;5.57;0.68;;;23.60;37.10;;;;;;4993374;28;20058;-61
2022/12/07 12:52:03;;;;;;;3.35;1.00;;;23.60;37.10;;;;;;5009623;28;20049;-61
2022/12/07 12:54:32;;;;;;;4.38;1.00;;;23.60;37.10;;;;;;4993438;28;20046;-60
2022/12/07 12:57:17;;;;;;;2.65;1.08;;;23.60;37.10;;;;;;4993468;28;20535;-61
2022/12/07 13:00:16;;;;;;;2.03;0.90;;;23.60;37.20;;;;;;4992541;28;20038;-61
2022/12/07 13:02:48;;;;;;;2.15;1.00;;;23.60;37.10;;;;;;4993635;28;20197;-61
2022/12/07 13:05:13;;;;;;;1.98;0.70;;;23.60;37.20;;;;;;4994130;28;20053;-60
2022/12/07 13:07:51;;;;;;;1.50;0.73;;;23.60;37.30;;;;;;4993682;28;20568;-60
2022/12/07 13:10:32;;;;;;;2.70;1.17;;;23.70;37.30;;;;;;4991510;28;20038;-61